createdAt,value
2019-06-20T00:01:52.820Z,15.59
2019-06-20T00:04:21.015Z,15.60
2019-06-20T00:06:49.228Z,15.68
2019-06-20T00:09:17.414Z,15.78
2019-06-20T00:11:45.622Z,15.73
2019-06-20T00:14:13.810Z,15.69
2019-06-20T00:16:42.019Z,15.86
2019-06-20T00:19:10.216Z,15.93
2019-06-20T00:21:38.433Z,15.93
2019-06-20T00:24:06.613Z,16.05
2019-06-20T00:26:34.819Z,15.99
2019-06-20T00:29:03.023Z,16.02
2019-06-20T00:31:31.215Z,16.13
2019-06-20T00:33:59.414Z,16.15
2019-06-20T00:36:27.622Z,16.17
2019-06-20T00:38:55.820Z,16.04
2019-06-20T00:41:24.020Z,16.09
2019-06-20T00:43:52.213Z,16.15
2019-06-20T00:46:20.417Z,16.12
2019-06-20T00:48:48.614Z,16.10
2019-06-20T00:51:16.814Z,16.14
2019-06-20T00:53:45.011Z,16.17
2019-06-20T00:56:13.222Z,16.14
2019-06-20T00:58:41.408Z,16.08
2019-06-20T01:01:09.610Z,16.10
2019-06-20T01:03:37.807Z,16.07
2019-06-20T01:06:06.018Z,16.10
2019-06-20T01:08:34.210Z,16.16
2019-06-20T01:11:02.433Z,16.15
2019-06-20T01:13:33.970Z,16.20
2019-06-20T01:16:00.538Z,16.25
2019-06-20T01:18:28.741Z,16.33
2019-06-20T01:20:56.937Z,16.34
2019-06-20T01:23:25.139Z,16.29
2019-06-20T01:25:53.343Z,16.25
2019-06-20T01:28:21.533Z,16.25
2019-06-20T01:30:49.728Z,16.28
2019-06-20T01:33:17.928Z,16.29
2019-06-20T01:35:47.162Z,16.26
2019-06-20T01:38:15.375Z,16.20
2019-06-20T01:40:43.733Z,16.19
2019-06-20T01:43:11.940Z,16.13
2019-06-20T01:45:40.142Z,16.16
2019-06-20T01:48:08.351Z,16.18
2019-06-20T01:50:36.546Z,16.08
2019-06-20T01:53:04.748Z,16.03
2019-06-20T01:55:32.949Z,15.99
2019-06-20T01:58:01.220Z,15.97
2019-06-20T02:00:38.456Z,15.88
2019-06-20T02:03:06.666Z,15.87
2019-06-20T02:05:34.864Z,15.92
2019-06-20T02:08:03.129Z,16.00
2019-06-20T02:10:31.285Z,16.05
2019-06-20T02:12:59.471Z,16.01
2019-06-20T02:15:27.726Z,15.98
2019-06-20T02:17:55.880Z,16.12
2019-06-20T02:20:29.699Z,16.16
2019-06-20T02:22:57.896Z,16.07
2019-06-20T02:25:26.088Z,16.10
2019-06-20T02:27:54.306Z,15.79
2019-06-20T02:30:22.502Z,15.79
2019-06-20T02:32:50.711Z,15.57
2019-06-20T02:35:18.905Z,15.51
2019-06-20T02:37:47.112Z,15.36
2019-06-20T02:40:15.312Z,15.37
2019-06-20T02:42:43.624Z,15.30
2019-06-20T02:45:11.820Z,15.13
2019-06-20T02:47:40.030Z,15.09
2019-06-20T02:50:08.225Z,14.99
2019-06-20T02:52:36.426Z,14.95
2019-06-20T02:55:05.085Z,15.01
2019-06-20T02:57:33.290Z,14.99
2019-06-20T03:00:01.645Z,14.88
2019-06-20T03:02:30.077Z,15.07
2019-06-20T03:04:58.287Z,15.07
2019-06-20T03:07:26.552Z,15.03
2019-06-20T03:09:54.755Z,14.94
2019-06-20T03:12:22.958Z,15.08
2019-06-20T03:14:51.211Z,14.94
2019-06-20T03:17:20.203Z,14.96
2019-06-20T03:19:48.387Z,14.99
2019-06-20T03:22:16.587Z,14.99
2019-06-20T03:24:44.791Z,14.91
2019-06-20T03:27:12.993Z,14.94
2019-06-20T03:29:41.193Z,14.94
2019-06-20T03:32:09.387Z,15.01
2019-06-20T03:34:37.586Z,14.93
2019-06-20T03:37:05.784Z,14.95
2019-06-20T03:39:33.988Z,15.11
2019-06-20T03:42:02.186Z,15.02
2019-06-20T03:44:31.866Z,15.06
2019-06-20T03:47:00.163Z,15.16
2019-06-20T03:49:28.370Z,15.22
2019-06-20T03:51:56.651Z,15.17
2019-06-20T03:54:24.953Z,15.10
2019-06-20T03:56:53.144Z,15.22
2019-06-20T03:59:21.348Z,15.14
2019-06-20T04:01:49.542Z,15.25
2019-06-20T04:04:17.751Z,15.35
2019-06-20T04:06:45.953Z,15.39
2019-06-20T04:09:14.155Z,15.49
2019-06-20T04:11:42.359Z,15.45
2019-06-20T04:14:10.567Z,15.55
2019-06-20T04:16:38.759Z,15.56
2019-06-20T04:19:06.960Z,15.85
2019-06-20T04:21:35.156Z,15.85
2019-06-20T04:24:03.368Z,15.89
2019-06-20T04:26:31.564Z,16.09
2019-06-20T04:28:59.791Z,16.09
2019-06-20T04:31:27.972Z,16.19
2019-06-20T04:33:56.178Z,16.31
2019-06-20T04:36:24.377Z,16.38
2019-06-20T04:38:52.599Z,16.46
2019-06-20T04:41:20.776Z,16.60
2019-06-20T04:43:48.984Z,16.64
2019-06-20T04:46:18.812Z,16.81
2019-06-20T04:48:47.017Z,16.87
2019-06-20T04:51:15.260Z,16.99
2019-06-20T04:53:43.466Z,17.17
2019-06-20T04:56:11.671Z,17.10
2019-06-20T04:58:39.866Z,17.20
2019-06-20T05:01:08.059Z,17.33
2019-06-20T05:03:36.260Z,17.37
2019-06-20T05:06:04.489Z,17.42
2019-06-20T05:08:32.656Z,17.40
2019-06-20T05:11:00.850Z,17.32
2019-06-20T05:13:29.110Z,17.37
2019-06-20T05:15:57.260Z,17.41
2019-06-20T05:18:25.457Z,17.38
2019-06-20T05:20:53.656Z,17.29
2019-06-20T05:23:21.860Z,17.33
2019-06-20T05:25:50.055Z,17.29
2019-06-20T05:28:18.252Z,17.34
2019-06-20T05:30:47.322Z,17.28
2019-06-20T05:33:15.536Z,17.42
2019-06-20T05:35:43.728Z,17.47
2019-06-20T05:38:11.916Z,17.46
2019-06-20T05:40:40.125Z,17.35
2019-06-20T05:43:08.325Z,17.31
2019-06-20T05:45:36.529Z,17.46
2019-06-20T05:48:05.173Z,17.28
2019-06-20T05:50:33.386Z,17.31
2019-06-20T05:53:01.614Z,17.30
2019-06-20T05:55:29.801Z,17.23
2019-06-20T05:57:57.993Z,17.22
2019-06-20T06:00:26.215Z,17.30
2019-06-20T06:02:54.408Z,17.36
2019-06-20T06:05:22.673Z,17.49
2019-06-20T06:07:50.808Z,17.37
2019-06-20T06:10:19.027Z,17.46
2019-06-20T06:12:47.223Z,17.70
2019-06-20T06:15:15.704Z,17.67
2019-06-20T06:17:43.932Z,17.58
2019-06-20T06:20:12.132Z,17.56
2019-06-20T06:22:40.408Z,17.52
2019-06-20T06:25:08.617Z,17.51
2019-06-20T06:27:36.812Z,17.56
2019-06-20T06:30:11.347Z,17.58
2019-06-20T06:32:40.732Z,17.80
2019-06-20T06:35:09.297Z,17.85
2019-06-20T06:37:37.541Z,17.89
2019-06-20T06:40:08.152Z,18.07
2019-06-20T06:42:36.449Z,18.04
2019-06-20T06:45:07.970Z,18.07
2019-06-20T06:47:36.184Z,18.24
2019-06-20T06:50:07.300Z,18.37
2019-06-20T06:52:35.610Z,18.26
2019-06-20T06:55:04.384Z,18.32
2019-06-20T06:57:32.593Z,18.81
2019-06-20T07:00:00.801Z,19.02
2019-06-20T07:02:29.028Z,19.11
2019-06-20T07:04:57.242Z,19.29
2019-06-20T07:07:25.443Z,19.44
2019-06-20T07:09:53.715Z,19.19
2019-06-20T07:12:21.934Z,19.26
2019-06-20T07:14:50.144Z,19.20
2019-06-20T07:17:18.355Z,19.10
2019-06-20T07:19:46.570Z,18.95
2019-06-20T07:22:14.782Z,19.03
2019-06-20T07:24:42.986Z,18.83
2019-06-20T07:27:11.194Z,18.76
2019-06-20T07:29:39.426Z,18.63
2019-06-20T07:32:07.632Z,18.81
2019-06-20T07:34:35.834Z,19.17
2019-06-20T07:37:04.038Z,19.23
2019-06-20T07:39:32.237Z,19.38
2019-06-20T07:42:00.451Z,19.21
2019-06-20T07:44:28.661Z,19.09
2019-06-20T07:46:56.883Z,19.36
2019-06-20T07:49:25.087Z,19.92
2019-06-20T07:51:53.298Z,19.73
2019-06-20T07:54:21.526Z,19.44
2019-06-20T07:56:49.729Z,19.04
2019-06-20T07:59:17.949Z,18.77
2019-06-20T08:01:46.151Z,18.64
2019-06-20T08:04:14.360Z,18.37
2019-06-20T08:06:42.566Z,18.57
2019-06-20T08:09:10.773Z,18.52
2019-06-20T08:11:39.327Z,19.17
2019-06-20T08:14:07.528Z,19.77
2019-06-20T08:16:35.762Z,20.31
2019-06-20T08:19:04.061Z,20.61
2019-06-20T08:21:32.237Z,20.43
2019-06-20T08:24:00.438Z,20.26
2019-06-20T08:26:28.648Z,20.92
2019-06-20T08:29:10.298Z,21.15
2019-06-20T08:31:26.786Z,20.38
2019-06-20T08:33:55.955Z,20.35
2019-06-20T08:36:24.919Z,20.83
2019-06-20T08:38:53.133Z,21.27
2019-06-20T08:41:21.346Z,21.24
2019-06-20T08:43:49.544Z,21.12
2019-06-20T08:46:17.763Z,21.26
2019-06-20T08:48:45.977Z,21.04
2019-06-20T08:51:14.777Z,21.04
2019-06-20T08:53:43.066Z,21.12
2019-06-20T08:56:11.290Z,20.92
2019-06-20T08:58:39.480Z,20.65
2019-06-20T09:03:35.930Z,21.18
2019-06-20T09:06:04.396Z,21.34
2019-06-20T09:08:32.600Z,21.93
2019-06-20T09:11:01.822Z,21.51
2019-06-20T09:13:30.184Z,21.53
2019-06-20T09:15:58.785Z,21.79
2019-06-20T09:18:27.075Z,21.76
2019-06-20T09:20:55.972Z,22.06
2019-06-20T09:23:24.272Z,21.87
2019-06-20T09:25:52.486Z,21.69
2019-06-20T09:28:20.700Z,21.56
2019-06-20T09:30:48.970Z,21.22
2019-06-20T09:33:17.186Z,21.26
2019-06-20T09:35:45.391Z,21.22
2019-06-20T09:38:15.185Z,20.76
2019-06-20T09:40:43.386Z,20.49
2019-06-20T09:43:26.557Z,20.59
2019-06-20T09:45:41.529Z,20.64
2019-06-20T09:48:09.745Z,20.93
2019-06-20T09:50:37.940Z,20.88
2019-06-20T09:53:06.152Z,21.09
2019-06-20T09:55:34.354Z,22.11
2019-06-20T09:58:02.584Z,22.79
2019-06-20T10:00:30.820Z,22.77
2019-06-20T10:02:58.999Z,22.79
2019-06-20T10:05:27.188Z,22.96
2019-06-20T10:07:56.671Z,22.69
2019-06-20T10:10:27.489Z,22.31
2019-06-20T10:12:55.946Z,22.63
2019-06-20T10:15:28.408Z,22.89
2019-06-20T10:17:56.586Z,23.26
2019-06-20T10:20:24.788Z,24.09
2019-06-20T10:22:53.472Z,24.46
2019-06-20T10:25:22.244Z,25.06
2019-06-20T10:27:51.418Z,24.95
2019-06-20T10:30:21.944Z,24.86
2019-06-20T10:32:51.113Z,24.41
2019-06-20T10:35:19.280Z,24.38
2019-06-20T10:37:48.502Z,24.77
2019-06-20T10:40:17.041Z,25.23
2019-06-20T10:45:08.667Z,25.47
2019-06-20T10:47:36.875Z,24.75
2019-06-20T10:50:07.105Z,24.51
2019-06-20T10:52:35.306Z,24.60
2019-06-20T10:55:05.402Z,24.72
2019-06-20T10:57:32.970Z,24.77
2019-06-20T11:00:01.105Z,24.96
2019-06-20T11:02:29.312Z,24.79
2019-06-20T11:04:57.514Z,23.66
2019-06-20T11:07:25.895Z,23.87
2019-06-20T11:09:54.106Z,23.87
2019-06-20T11:12:22.316Z,23.94
2019-06-20T11:14:50.525Z,24.31
2019-06-20T11:17:18.736Z,23.94
2019-06-20T11:19:48.061Z,24.43
2019-06-20T11:22:16.424Z,24.53
2019-06-20T11:24:45.174Z,24.56
2019-06-20T11:27:13.408Z,24.14
2019-06-20T11:29:41.693Z,23.17
2019-06-20T11:32:09.895Z,23.24
2019-06-20T11:34:39.367Z,23.89
2019-06-20T11:37:07.681Z,23.64
2019-06-20T11:39:37.314Z,23.30
2019-06-20T11:42:05.692Z,23.42
2019-06-20T11:44:35.329Z,24.26
2019-06-20T11:47:03.839Z,24.65
2019-06-20T11:49:32.058Z,24.22
2019-06-20T11:52:00.602Z,23.70
2019-06-20T11:54:28.808Z,24.15
2019-06-20T11:56:57.030Z,24.57
2019-06-20T11:59:25.226Z,24.38
2019-06-20T12:01:53.423Z,24.45
2019-06-20T12:04:21.633Z,25.48
2019-06-20T12:06:49.830Z,25.98
2019-06-20T12:09:18.039Z,24.59
2019-06-20T12:11:46.820Z,24.29
2019-06-20T12:14:15.049Z,24.34
2019-06-20T12:16:44.337Z,23.78
2019-06-20T12:19:12.632Z,23.53
2019-06-20T12:21:41.309Z,23.31
2019-06-20T12:24:10.548Z,23.24
2019-06-20T12:26:39.132Z,22.96
2019-06-20T12:29:08.736Z,23.20
2019-06-20T12:31:36.936Z,23.44
2019-06-20T12:34:05.220Z,23.87
2019-06-20T12:36:33.424Z,24.39
2019-06-20T12:39:01.969Z,24.42
2019-06-20T12:41:30.234Z,24.33
2019-06-20T12:43:58.389Z,24.53
2019-06-20T12:46:26.586Z,24.93
2019-06-20T12:48:54.791Z,24.89
2019-06-20T12:51:22.989Z,24.78
2019-06-20T12:53:51.187Z,24.85
2019-06-20T12:56:19.385Z,24.81
2019-06-20T12:58:48.507Z,24.76
2019-06-20T13:01:16.779Z,24.76
2019-06-20T13:03:46.341Z,23.86
2019-06-20T13:06:14.661Z,24.15
2019-06-20T13:08:43.627Z,24.57
2019-06-20T13:11:11.843Z,25.61
2019-06-20T13:13:40.558Z,25.87
2019-06-20T13:16:08.824Z,25.30
2019-06-20T13:18:37.070Z,25.36
2019-06-20T13:21:05.237Z,25.64
2019-06-20T13:23:33.426Z,26.31
2019-06-20T13:26:01.638Z,26.78
2019-06-20T13:28:29.844Z,26.83
2019-06-20T13:30:58.046Z,26.26
2019-06-20T13:33:26.251Z,26.33
2019-06-20T13:35:54.476Z,25.54
2019-06-20T13:38:22.669Z,25.60
2019-06-20T13:40:50.884Z,26.26
2019-06-20T13:43:19.287Z,26.47
2019-06-20T13:45:47.580Z,26.56
2019-06-20T13:48:16.057Z,26.22
2019-06-20T13:50:45.350Z,25.95
2019-06-20T13:53:13.635Z,26.36
2019-06-20T13:55:42.892Z,25.72
2019-06-20T13:58:11.770Z,25.44
2019-06-20T14:00:42.796Z,25.23
2019-06-20T14:03:09.899Z,25.39
2019-06-20T14:05:38.100Z,25.18
2019-06-20T14:08:06.449Z,25.89
2019-06-20T14:10:34.669Z,26.57
2019-06-20T14:13:18.049Z,27.07
2019-06-20T14:15:32.787Z,27.48
2019-06-20T14:18:01.549Z,27.95
2019-06-20T14:20:29.746Z,27.30
2019-06-20T14:22:57.944Z,26.64
2019-06-20T14:25:26.139Z,26.73
2019-06-20T14:27:54.336Z,25.73
2019-06-20T14:30:22.551Z,25.36
2019-06-20T14:32:51.416Z,26.14
2019-06-20T14:35:19.802Z,25.59
2019-06-20T14:37:49.550Z,24.64
2019-06-20T14:40:17.922Z,25.13
2019-06-20T14:42:47.716Z,25.27
2019-06-20T14:45:15.533Z,24.74
2019-06-20T14:47:43.741Z,24.39
2019-06-20T14:50:11.957Z,24.35
2019-06-20T14:52:40.290Z,24.12
2019-06-20T14:55:08.486Z,24.18
2019-06-20T14:57:36.748Z,24.23
2019-06-20T15:00:06.476Z,24.54
2019-06-20T15:02:38.842Z,24.56
2019-06-20T15:05:07.390Z,24.85
2019-06-20T15:07:35.588Z,24.16
2019-06-20T15:10:06.323Z,23.51
2019-06-20T15:12:34.537Z,23.36
2019-06-20T15:15:02.903Z,23.65
2019-06-20T15:17:31.111Z,23.97
2019-06-20T15:19:59.301Z,24.04
2019-06-20T15:22:27.530Z,24.01
2019-06-20T15:24:57.121Z,24.30
2019-06-20T15:27:25.522Z,23.81
2019-06-20T15:29:54.424Z,23.87
2019-06-20T15:32:22.709Z,24.15
2019-06-20T15:34:51.599Z,24.19
2019-06-20T15:37:20.304Z,24.17
2019-06-20T15:39:49.945Z,24.15
2019-06-20T15:42:18.432Z,24.20
2019-06-20T15:44:47.279Z,23.97
2019-06-20T15:47:16.595Z,24.12
2019-06-20T15:49:44.794Z,24.08
2019-06-20T15:52:13.059Z,24.02
2019-06-20T15:54:41.245Z,23.99
2019-06-20T15:57:09.461Z,24.23
2019-06-20T15:59:37.651Z,24.06
2019-06-20T16:02:05.961Z,24.56
2019-06-20T16:04:34.153Z,24.86
2019-06-20T16:07:02.366Z,24.60
2019-06-20T16:09:30.573Z,24.47
2019-06-20T16:11:58.765Z,24.29
2019-06-20T16:14:26.957Z,24.10
2019-06-20T16:16:55.640Z,23.69
2019-06-20T16:19:23.827Z,23.50
2019-06-20T16:21:52.115Z,23.40
2019-06-20T16:24:20.304Z,23.52
2019-06-20T16:26:48.511Z,23.30
2019-06-20T16:29:16.703Z,23.01
2019-06-20T16:31:44.984Z,22.82
2019-06-20T16:34:13.171Z,22.67
2019-06-20T16:36:41.399Z,22.68
2019-06-20T16:39:09.581Z,22.69
2019-06-20T16:41:37.861Z,22.79
2019-06-20T16:44:06.133Z,22.79
2019-06-20T16:46:34.338Z,22.64
2019-06-20T16:49:02.546Z,22.50
2019-06-20T16:51:30.793Z,22.06
2019-06-20T16:53:58.987Z,22.12
2019-06-20T16:56:27.195Z,22.14
2019-06-20T16:58:55.408Z,22.06
2019-06-20T17:01:23.674Z,22.28
2019-06-20T17:03:51.873Z,22.28
2019-06-20T17:06:20.070Z,22.36
2019-06-20T17:08:48.278Z,22.23
2019-06-20T17:11:16.473Z,22.20
2019-06-20T17:13:44.681Z,22.17
2019-06-20T17:16:12.936Z,21.99
2019-06-20T17:18:41.086Z,21.84
2019-06-20T17:21:09.290Z,21.70
2019-06-20T17:23:37.572Z,21.53
2019-06-20T17:26:06.043Z,21.39
2019-06-20T17:28:34.274Z,21.35
2019-06-20T17:31:02.439Z,21.39
2019-06-20T17:33:30.644Z,21.07
2019-06-20T17:35:58.850Z,21.05
2019-06-20T17:38:27.050Z,21.04
2019-06-20T17:40:55.243Z,20.94
2019-06-20T17:43:24.023Z,21.15
2019-06-20T17:45:52.221Z,20.98
2019-06-20T17:48:20.419Z,20.94
2019-06-20T17:50:48.625Z,20.83
2019-06-20T17:53:18.296Z,20.71
2019-06-20T17:55:46.505Z,20.73
2019-06-20T17:58:14.704Z,20.54
2019-06-20T18:00:42.898Z,20.45
2019-06-20T18:03:11.108Z,20.49
2019-06-20T18:05:39.304Z,20.34
2019-06-20T18:08:14.977Z,20.31
2019-06-20T18:10:37.424Z,20.39
2019-06-20T18:13:05.625Z,20.32
2019-06-20T18:15:34.115Z,20.36
2019-06-20T18:18:02.329Z,20.27
2019-06-20T18:20:30.682Z,19.94
2019-06-20T18:22:59.160Z,19.90
2019-06-20T18:25:27.356Z,19.68
2019-06-20T18:27:56.504Z,19.50
2019-06-20T18:30:42.163Z,19.47
2019-06-20T18:33:10.381Z,19.10
2019-06-20T18:35:39.007Z,19.24
2019-06-20T18:38:07.250Z,19.28
2019-06-20T18:40:35.451Z,19.28
2019-06-20T18:43:03.669Z,19.41
2019-06-20T18:45:31.856Z,19.46
2019-06-20T18:48:00.129Z,19.41
2019-06-20T18:50:28.322Z,19.41
2019-06-20T18:52:56.575Z,19.37
2019-06-20T18:55:24.843Z,19.29
2019-06-20T18:57:53.085Z,19.34
2019-06-20T19:00:34.082Z,19.04
2019-06-20T19:02:53.624Z,19.00
2019-06-20T19:05:22.013Z,18.77
2019-06-20T19:07:50.217Z,18.76
2019-06-20T19:10:22.853Z,18.25
2019-06-20T19:12:51.122Z,18.36
2019-06-20T19:15:19.511Z,18.40
2019-06-20T19:17:47.715Z,18.38
2019-06-20T19:20:16.682Z,18.28
2019-06-20T19:22:44.906Z,18.38
2019-06-20T19:25:13.111Z,18.49
2019-06-20T19:27:46.632Z,18.25
2019-06-20T19:30:15.501Z,18.37
2019-06-20T19:32:43.690Z,18.20
2019-06-20T19:35:12.787Z,18.14
2019-06-20T19:37:40.974Z,18.17
2019-06-20T19:40:09.452Z,18.30
2019-06-20T19:42:37.716Z,18.22
2019-06-20T19:45:10.110Z,18.25
2019-06-20T19:47:38.515Z,18.23
2019-06-20T19:50:07.988Z,18.23
2019-06-20T19:52:36.189Z,18.20
2019-06-20T19:55:04.571Z,18.14
2019-06-20T19:57:32.774Z,18.13
2019-06-20T20:00:01.012Z,17.98
2019-06-20T20:02:29.186Z,17.90
2019-06-20T20:04:57.404Z,17.86
2019-06-20T20:07:25.595Z,17.81
2019-06-20T20:09:53.798Z,17.70
2019-06-20T20:12:21.996Z,17.68
2019-06-20T20:14:50.220Z,17.74
2019-06-20T20:17:18.425Z,17.74
2019-06-20T20:19:46.649Z,17.67
2019-06-20T20:22:14.908Z,17.69
2019-06-20T20:24:43.126Z,17.68
2019-06-20T20:27:11.335Z,17.66
2019-06-20T20:29:39.556Z,17.60
2019-06-20T20:32:07.756Z,17.70
2019-06-20T20:34:36.003Z,17.71
2019-06-20T20:37:04.210Z,17.84
2019-06-20T20:39:32.421Z,17.81
2019-06-20T20:42:00.622Z,17.74
2019-06-20T20:44:28.890Z,17.67
2019-06-20T20:46:57.227Z,17.70
2019-06-20T20:49:25.430Z,17.48
2019-06-20T20:51:53.664Z,17.50
2019-06-20T20:54:21.872Z,17.44
2019-06-20T20:56:50.083Z,17.48
2019-06-20T20:59:18.313Z,17.45
2019-06-20T21:01:46.545Z,17.40
2019-06-20T21:04:14.753Z,17.48
2019-06-20T21:06:42.974Z,17.40
2019-06-20T21:09:11.632Z,17.41
2019-06-20T21:11:39.816Z,17.42
2019-06-20T21:14:08.022Z,17.37
2019-06-20T21:16:36.246Z,17.32
2019-06-20T21:19:04.461Z,17.28
2019-06-20T21:21:32.682Z,17.31
2019-06-20T21:24:00.888Z,17.38
2019-06-20T21:26:29.113Z,17.25
2019-06-20T21:28:57.319Z,17.32
2019-06-20T21:31:25.558Z,17.35
2019-06-20T21:33:54.638Z,17.10
2019-06-20T21:36:22.956Z,17.14
2019-06-20T21:38:51.159Z,17.12
2019-06-20T21:41:19.365Z,17.22
2019-06-20T21:43:47.567Z,16.99
2019-06-20T21:46:15.786Z,16.94
2019-06-20T21:48:43.983Z,16.88
2019-06-20T21:51:12.191Z,16.74
2019-06-20T21:53:40.391Z,16.83
2019-06-20T21:56:08.613Z,16.85
2019-06-20T21:58:36.806Z,16.72
2019-06-20T22:01:05.100Z,16.78
2019-06-20T22:03:33.300Z,16.63
2019-06-20T22:06:01.581Z,16.62
2019-06-20T22:08:29.777Z,16.54
2019-06-20T22:10:57.990Z,16.49
2019-06-20T22:13:26.191Z,16.49
2019-06-20T22:15:54.404Z,16.37
2019-06-20T22:18:22.603Z,16.23
2019-06-20T22:20:50.830Z,16.31
2019-06-20T22:23:19.055Z,16.30
2019-06-20T22:25:47.261Z,16.28
2019-06-20T22:28:15.707Z,16.28
2019-06-20T22:30:49.672Z,16.02
2019-06-20T22:33:17.912Z,15.70
2019-06-20T22:35:46.326Z,15.86
2019-06-20T22:38:14.563Z,15.86
2019-06-20T22:40:42.752Z,15.65
2019-06-20T22:43:10.967Z,15.48
2019-06-20T22:45:39.169Z,15.47
2019-06-20T22:48:07.386Z,15.26
2019-06-20T22:50:35.583Z,15.26
2019-06-20T22:53:03.943Z,15.26
2019-06-20T22:55:32.135Z,15.18
2019-06-20T22:58:00.348Z,15.26
2019-06-20T23:00:30.019Z,15.26
2019-06-20T23:02:58.221Z,15.15
2019-06-20T23:05:26.420Z,15.08
2019-06-20T23:07:54.630Z,15.08
2019-06-20T23:10:22.831Z,15.13
2019-06-20T23:12:51.046Z,15.18
2019-06-20T23:15:19.242Z,15.03
2019-06-20T23:17:47.459Z,14.94
2019-06-20T23:20:15.653Z,14.89
2019-06-20T23:22:43.912Z,14.89
2019-06-20T23:25:12.059Z,15.07
2019-06-20T23:27:40.271Z,15.06
2019-06-20T23:30:08.616Z,14.97
2019-06-20T23:32:36.898Z,15.05
2019-06-20T23:35:07.113Z,14.96
2019-06-20T23:37:35.305Z,14.88
2019-06-20T23:40:07.393Z,14.91
2019-06-20T23:42:35.576Z,14.94
2019-06-20T23:45:04.729Z,14.96
2019-06-20T23:47:33.017Z,14.90
2019-06-20T23:50:01.263Z,15.12
2019-06-20T23:52:31.062Z,15.25
2019-06-20T23:54:59.263Z,15.19
2019-06-20T23:57:27.471Z,14.95
2019-06-20T23:59:55.664Z,15.08
